Home > Products > Valid Products > MTR

000
SAUS44 KMEG 021442
MTRTUP
SPECI KTUP 021441Z 25006KT 10SM BKN016 29/23 A3008 RMK AO2 T02890233





000
SAUS44 KMEG 021431
MTRTUP
SPECI KTUP 021430Z 22006KT 10SM BKN014 28/23 A3008 RMK AO2 T02830233





000
SAUS44 KMEG 021354
MTRTUP
METAR KTUP 021353Z 23006KT 10SM CLR 27/23 A3007 RMK AO2 SLP177
T02720228





000
SAUS44 KMEG 021254
MTRTUP
METAR KTUP 021253Z 23008KT 10SM CLR 26/22 A3008 RMK AO2 SLP180
T02560222





000
SAUS44 KMEG 021154
MTRTUP
METAR KTUP 021153Z 19003KT 10SM CLR 23/22 A3006 RMK AO2 SLP176
T02330217 10250 20228 53016





000
SAUS44 KMEG 021054
MTRTUP
METAR KTUP 021053Z 21003KT 10SM CLR 23/22 A3004 RMK AO2 SLP169
T02330217





000
SAUS44 KMEG 020954
MTRTUP
METAR KTUP 020953Z AUTO 19003KT 10SM CLR 23/21 A3003 RMK AO2 SLP164
T02280211





000
SAUS44 KMEG 020854
MTRTUP
METAR KTUP 020853Z AUTO 22005KT 10SM CLR 23/21 A3002 RMK AO2 SLP159
T02330211 58001





000
SAUS44 KMEG 020754
MTRTUP
METAR KTUP 020753Z AUTO 22004KT 10SM CLR 23/21 A3004 RMK AO2 SLP167
T02330211





000
SAUS44 KMEG 020654
MTRTUP
METAR KTUP 020653Z AUTO 24004KT 10SM CLR 24/21 A3004 RMK AO2 SLP167
T02440211





000
SAUS44 KMEG 020554
MTRTUP
METAR KTUP 020553Z AUTO 23003KT 10SM CLR 25/21 A3002 RMK AO2 SLP159
T02500211 10306 20244 403440217 53003





000
SAUS44 KMEG 020454
MTRTUP
METAR KTUP 020453Z AUTO 21005KT 10SM CLR 25/22 A3000 RMK AO2 SLP154
T02500217





000
SAUS44 KMEG 020354
MTRTUP
METAR KTUP 020353Z AUTO 20005KT 10SM CLR 25/22 A3001 RMK AO2 SLP157
T02500217





000
SAUS44 KMEG 020354
MTRTUP
METAR KTUP 020353Z AUTO 20005KT 10SM CLR 25/22 A3001 RMK AO2 SLP157
T02500217





000
SAUS44 KMEG 020254
MTRTUP
METAR KTUP 020253Z 21003KT 10SM CLR 27/22 A3001 RMK AO2 SLP157
T02720217 51007





000
SAUS44 KMEG 020154
MTRTUP
METAR KTUP 020153Z 19004KT 10SM CLR 27/22 A3001 RMK AO2 SLP157
T02720217





000
SAUS44 KMEG 020054
MTRTUP
METAR KTUP 020053Z 21004KT 10SM CLR 29/22 A2999 RMK AO2 SLP151
T02890217





000
SAUS44 KMEG 012354
MTRTUP
METAR KTUP 012353Z 22006KT 10SM CLR 31/21 A2999 RMK AO2 SLP150
T03060206 10344 20306 56008





000
SAUS44 KMEG 012254
MTRTUP
METAR KTUP 012253Z 22010KT 10SM FEW050 33/21 A2999 RMK AO2 SLP151
T03280206





000
SAUS44 KMEG 012154
MTRTUP
METAR KTUP 012153Z AUTO 20008KT 10SM CLR 34/20 A2998 RMK AO2 SLP148
T03390200





000
SAUS44 KMEG 012054
MTRTUP
METAR KTUP 012053Z AUTO 27008KT 10SM FEW055 34/20 A3001 RMK AO2
SLP158 T03390200 58020





000
SAUS44 KMEG 011954
MTRTUP
METAR KTUP 011953Z AUTO VRB06KT 10SM FEW055 SCT070 33/20 A3003 RMK
AO2 SLP165 T03330200





000
SAUS44 KMEG 011854
MTRTUP
METAR KTUP 011853Z 26007KT 10SM SCT050 33/20 A3006 RMK AO2 SLP175
T03280200





000
SAUS44 KMEG 011754
MTRTUP
METAR KTUP 011753Z 24007KT 10SM FEW043 33/21 A3007 RMK AO2 SLP177
T03280206 10328 20222 58007





000
SAUS44 KMEG 011654
MTRTUP
METAR KTUP 011653Z 26008KT 220V300 10SM CLR 32/21 A3008 RMK AO2
SLP183 T03220211





000
SAUS44 KMEG 011554
MTRTUP
METAR KTUP 011553Z 24007KT 10SM CLR 31/22 A3008 RMK AO2 SLP182
T03060222





000
SAUS44 KMEG 011454
MTRTUP
METAR KTUP 011453Z 25006KT 10SM CLR 29/23 A3009 RMK AO2 SLP185
T02890228 51008





000
SAUS44 KMEG 011432
MTRTUP
SPECI KTUP 011431Z 27007KT 10SM SCT009 SCT015 28/23 A3009 RMK AO2
T02780233





000
SAUS44 KMEG 011354
MTRTUP
METAR KTUP 011353Z 23006KT 10SM BKN007 27/23 A3009 RMK AO2 SLP184
T02670233





000
SAUS44 KMEG 011338
MTRTUP
SPECI KTUP 011337Z 21004KT 10SM BKN007 26/23 A3009 RMK AO2 T02560228





000
SAUS44 KMEG 011325
MTRTUP
SPECI KTUP 011324Z 20005KT 10SM SCT006 25/23 A3009 RMK AO2 T02500228





000
SAUS44 KMEG 011254
MTRTUP
METAR KTUP 011253Z 21005KT 7SM CLR 24/22 A3007 RMK AO2 SLP179
T02390222





000
SAUS44 KMEG 011154
MTRTUP
METAR KTUP 011153Z 21004KT 5SM BR CLR 22/21 A3007 RMK AO2 SLP177
T02220211 10250 20217 53009





000
SAUS44 KMEG 011054
MTRTUP
METAR KTUP 011053Z 20003KT 5SM BR CLR 22/21 A3006 RMK AO2 SLP173
T02220211





000
SAUS44 KMEG 010955
MTRTUP
METAR KTUP 010953Z AUTO 00000KT 9SM CLR 23/21 A3005 RMK AO2 SLP171
T02280211





000
SAUS44 KMEG 010854
MTRTUP
METAR KTUP 010853Z AUTO 22004KT 10SM CLR 23/22 A3004 RMK AO2 SLP167
T02280217 53007





000
SAUS44 KMEG 010754
MTRTUP
METAR KTUP 010753Z AUTO 21004KT 10SM CLR 24/22 A3003 RMK AO2 SLP164
T02390217





000
SAUS44 KMEG 010654
MTRTUP
METAR KTUP 010653Z AUTO 20008KT 10SM CLR 24/23 A3002 RMK AO2 SLP162
T02440228





000
SAUS44 KMEG 010554
MTRTUP
METAR KTUP 010553Z AUTO 20006KT 9SM CLR 25/23 A3002 RMK AO2 SLP161
T02500233 10283 20244 402940228 57006





000
SAUS44 KMEG 010454
MTRTUP
METAR KTUP 010453Z AUTO 20004KT 8SM CLR 24/23 A3003 RMK AO2 SLP164
T02440233





000
SAUS44 KMEG 010354
MTRTUP
METAR KTUP 010353Z AUTO 22003KT 10SM CLR 25/24 A3003 RMK AO2 SLP164
T02500239





000
SAUS44 KMEG 010254
MTRTUP
METAR KTUP 010253Z 20004KT 10SM SCT110 26/24 A3004 RMK AO2 SLP167
T02560239 50001





000
SAUS44 KMEG 010154
MTRTUP
METAR KTUP 010153Z 20006KT 10SM BKN120 26/24 A3005 RMK AO2 SLP170
T02610239





000
SAUS44 KMEG 010154
MTRTUP
METAR KTUP 010153Z 20006KT 10SM BKN120 26/24 A3005 RMK AO2 SLP170
T02610239





000
SAUS44 KMEG 010054
MTRTUP
METAR KTUP 010053Z 20005KT 10SM FEW110 27/23 A3004 RMK AO2 SLP168
T02670233





000
SAUS44 KMEG 312354
MTRTUP
METAR KTUP 312353Z AUTO 21008KT 10SM FEW110 28/23 A3003 RMK AO2
SLP166 T02830228 10294 20278 58002





000
SAUS44 KMEG 312254
MTRTUP
METAR KTUP 312253Z AUTO 21009KT 10SM CLR 29/23 A3004 RMK AO2 SLP166
T02940228





000
SAUS44 KMEG 312154
MTRTUP
METAR KTUP 312153Z AUTO 23006KT 10SM SCT095 28/22 A3005 RMK AO2
SLP171 T02830217





000
SAUS44 KMEG 312054
MTRTUP
METAR KTUP 312053Z AUTO 23009KT 10SM SCT120 28/22 A3004 RMK AO2
SLP168 T02830217 58013





000
SAUS44 KMEG 311954
MTRTUP
METAR KTUP 311953Z AUTO 23007KT 10SM FEW031 OVC100 28/22 A3006 RMK
AO2 SLP173 T02830222





000
SAUS44 KMEG 311854
MTRTUP
METAR KTUP 311853Z 21009KT 10SM SCT023 BKN033 BKN110 28/22 A3007 RMK
AO2 SLP179 T02830222





000
SAUS44 KMEG 311754
MTRTUP
METAR KTUP 311753Z 27009KT 10SM SCT023 BKN110 28/22 A3008 RMK AO2
SLP181 T02780217 10283 20228 56008





000
SAUS44 KMEG 311749
MTRTUP
SPECI KTUP 311748Z 27009KT 10SM SCT023 BKN110 28/22 A3008 RMK AO2





000
SAUS44 KMEG 311701
MTRTUP
SPECI KTUP 311700Z 25007KT 10SM BKN021 28/22 A3009 RMK AO2 T02780217





000
SAUS44 KMEG 311654
MTRTUP
METAR KTUP 311653Z VRB04KT 10SM SCT021 28/22 A3009 RMK AO2 SLP185
T02780217





000
SAUS44 KMEG 311613
MTRTUP
SPECI KTUP 311612Z 23005KT 10SM SCT017 SCT026 BKN032 27/22 A3010 RMK
AO2 T02670217





000
SAUS44 KMEG 311554
MTRTUP
METAR KTUP 311553Z 22010KT 10SM BKN017 BKN025 27/22 A3010 RMK AO2
SLP189 T02720222





000
SAUS44 KMEG 311504
MTRTUP
SPECI KTUP 311503Z 23008KT 10SM BKN015 BKN095 26/22 A3010 RMK AO2
T02610217





000
SAUS44 KMEG 311454
MTRTUP
METAR KTUP 311453Z 23009KT 10SM SCT015 SCT060 BKN095 25/22 A3010 RMK
AO2 SLP190 T02500217 51014





000
SAUS44 KMEG 311354
MTRTUP
METAR KTUP 311353Z 22007KT 10SM FEW009 23/21 A3009 RMK AO2 SLP186
T02330211





000
SAUS44 KMEG 311330
MTRTUP
SPECI KTUP 311329Z 22008KT 10SM SCT008 23/22 A3008 RMK AO2 T02330217





000
SAUS44 KMEG 311254
MTRTUP
METAR KTUP 311253Z 21009KT 10SM BKN007 23/21 A3008 RMK AO2 CIG
006V010 SLP183 T02280211





000
SAUS44 KMEG 311239
MTRTUP
SPECI KTUP 311238Z 21007KT 10SM BKN007 23/21 A3008 RMK AO2 CIG
006V010 T02280211





000
SAUS44 KMEG 311154
MTRTUP
METAR KTUP 311153Z 20010KT 10SM SCT006 23/21 A3006 RMK AO2 SLP176
70088 T02280211 10228 20228 51007





000
SAUS44 KMEG 311113
MTRTUP
SPECI KTUP 311112Z 20010KT 10SM BKN007 BKN011 BKN090 23/21 A3006 RMK
AO2 T02280211





000
SAUS44 KMEG 311101
MTRTUP
SPECI KTUP 311100Z 21009KT 10SM FEW007 BKN100 23/21 A3006 RMK AO2
T02280211





000
SAUS44 KMEG 311054
MTRTUP
METAR KTUP 311053Z 20009KT 10SM SCT100 23/21 A3006 RMK AO2 SLP176
T02280211





000
SAUS44 KMEG 311042
MTRTUP
SPECI KTUP 311041Z 21009KT 10SM SCT007 BKN100 23/21 A3006 RMK AO2
T02280211





000
SAUS44 KMEG 310954
MTRTUP
METAR KTUP 310953Z 21008KT 10SM OVC007 23/21 A3005 RMK AO2 SLP173
T02280211





000
SAUS44 KMEG 310854
MTRTUP
METAR KTUP 310853Z 20006KT 10SM OVC006 23/22 A3004 RMK AO2 CIG
005V011 SLP168 T02280217 58004





000
SAUS44 KMEG 310754
MTRTUP
METAR KTUP 310753Z 19005KT 10SM OVC006 23/22 A3004 RMK AO2 CIG
005V011 SLP168 T02280217





000
SAUS44 KMEG 310654
MTRTUP
METAR KTUP 310653Z 20006KT 10SM OVC006 23/21 A3005 RMK AO2 SLP172
T02280211





000
SAUS44 KMEG 310554
MTRTUP
METAR KTUP 310553Z 19009KT 10SM OVC007 23/21 A3005 RMK AO2 CIG
005V010 SLP172 60005 T02280211 10233 20228 403060222 58004





000
SAUS44 KMEG 310454
MTRTUP
METAR KTUP 310453Z 18005KT 10SM BKN006 23/21 A3005 RMK AO2 SLP172
T02280211





000
SAUS44 KMEG 310403
MTRTUP
SPECI KTUP 310402Z 18007KT 10SM OVC005 23/22 A3006 RMK AO2 T02280217





000
SAUS44 KMEG 310355
MTRTUP
METAR KTUP 310353Z 17006KT 10SM BKN004 23/22 A3006 RMK AO2 SLP175
T02280217





000
SAUS44 KMEG 310351
MTRTUP
SPECI KTUP 310349Z 18006KT 10SM BKN004 23/22 A3006 RMK AO2





000
SAUS44 KMEG 310313
MTRTUP
SPECI KTUP 310311Z 16006KT 10SM FEW004 23/22 A3005 RMK AO2 T02280217





000
SAUS44 KMEG 310254
MTRTUP
METAR KTUP 310253Z 15007KT 10SM CLR 23/22 A3006 RMK AO2 SLP173 P0001
60005 T02280217 55001





000
SAUS44 KMEG 310154
MTRTUP
METAR KTUP 310153Z 15004KT 10SM SCT110 23/22 A3005 RMK AO2 RAB27E39
SLP171 P0000 T02280217





000
SAUS44 KMEG 310054
MTRTUP
METAR KTUP 310053Z 00000KT 10SM CLR 23/21 A3005 RMK AO2 RAE31 SLP172
P0004 T02280211





000
SAUS44 KMEG 302354
MTRTUP
METAR KTUP 302353Z 00000KT 4SM -RA BR SCT120 23/21 A3006 RMK AO2
SLP175 P0025 60082 T02280211 10306 20222 50021





000
SAUS44 KMEG 302327
MTRTUP
SPECI KTUP 302326Z 24003KT 4SM -RA BR FEW042 SCT095 BKN120 23/21
A3007 RMK AO2 P0019 T02280211





000
SAUS44 KMEG 302314
MTRTUP
SPECI KTUP 302313Z 24003KT 2 1/2SM RA BR SCT010 SCT035 OVC100 23/22
A3007 RMK AO2 P0015 T02280217





000
SAUS44 KMEG 302305
MTRTUP
SPECI KTUP 302304Z 27005G17KT 1 3/4SM RA BR SCT012 BKN033 OVC090
23/22 A3008 RMK AO2 P0012 T02280217





000
SAUS44 KMEG 302301
MTRTUP
SPECI KTUP 302301Z 26004G17KT 1 1/4SM +RA BR BKN011 BKN020 OVC033
23/22 A3008 RMK AO2 P0010 T02280217





000
SAUS44 KMEG 302254
MTRTUP
METAR KTUP 302253Z 1 1/4SM +RA BR BKN009 BKN014 OVC022 23/22 A3008
RMK AO2 TSE2154 SLP183 P0054 T02280217





000
SAUS44 KMEG 302249
MTRTUP
SPECI KTUP 302248Z 17003KT 1SM +RA BR BKN011 BKN016 OVC022 23/22
A3007 RMK AO2 TSE2154 P0051





000
SAUS44 KMEG 302236
MTRTUP
SPECI KTUP 302235Z 29003KT 3/4SM +RA BR SCT010 BKN013 OVC044 23/21
A3008 RMK AO2 LTG DSNT N AND NE TSE2154 P0025 T02280211





000
SAUS44 KMEG 302232
MTRTUP
SPECI KTUP 302230Z 26003KT 2SM RA BR BKN013 BKN022 OVC048 23/21
A3008 RMK AO2 LTG DSNT N AND NE TSE2154 P0020 T02280211





000
SAUS44 KMEG 302223
MTRTUP
SPECI KTUP 302222Z 00000KT 1 3/4SM RA BR SCT019 BKN034 OVC050 23/22
A3008 RMK AO2 LTG DSNT N AND NE TSE2154 P0017 T02280217





000
SAUS44 KMEG 302213
MTRTUP
SPECI KTUP 302212Z 23003KT 1 1/4SM +RA BR FEW012 BKN020 OVC046 23/21
A3008 RMK AO2 LTG DSNT N AND NE TSE2154 P0011 T02280211





000
SAUS44 KMEG 302206
MTRTUP
SPECI KTUP 302205Z 32005KT 1 3/4SM VCTS +RA BR FEW012 BKN031 OVC050
23/21 A3007 RMK AO2 LTG DSNT N AND NE TSE2154 P0005 T02280211





000
SAUS44 KMEG 302155
MTRTUP
METAR KTUP 302153Z 28010G16KT 4SM TSRA BR SCT015 BKN033 OVC046 24/22
A3006 RMK AO2 LTG DSNT N AND NE RAB21 TSB29 SLP176 P0003 T02440222





000
SAUS44 KMEG 302136
MTRTUP
SPECI KTUP 302135Z 27008KT 5SM -TSRA SCT036 BKN047 OVC090 25/22
A3005 RMK AO2 LTG DSNT W-NE RAB21 TSB29 PRESRR P0002 T02500222





000
SAUS44 KMEG 302108
MTRTUP
SPECI KTUP 302107Z 20003KT 10SM VCTS BKN037 BKN047 OVC060 30/21
A3000 RMK AO2 LTG DSNT SW-NW T03000211





000
SAUS44 KMEG 302054
MTRTUP
METAR KTUP 302053Z 00000KT 10SM BKN043 BKN065 31/21 A3000 RMK AO2
LTG DSNT W AND NW SLP153 T03060211 56018





000
SAUS44 KMEG 301954
MTRTUP
METAR KTUP 301953Z VRB04KT 10SM FEW034 31/21 A3001 RMK AO2 LTG DSNT
S SLP156 T03060211





000
SAUS44 KMEG 301854
MTRTUP
METAR KTUP 301853Z 00000KT 10SM FEW032 30/21 A3003 RMK AO2 SLP165
T03000211





000
SAUS44 KMEG 301754
MTRTUP
METAR KTUP 301753Z 21003KT 10SM FEW023 29/22 A3005 RMK AO2 SLP172
60001 T02890217 10289 20239 58004





000
SAUS44 KMEG 301654
MTRTUP
METAR KTUP 301653Z 16008KT 10SM SCT021 SCT047 28/22 A3007 RMK AO2
SLP178 T02830217





000
SAUS44 KMEG 301647
MTRTUP
SPECI KTUP 301646Z 19005KT 10SM FEW021 SCT047 28/22 A3007 RMK AO2
T02830222





000
SAUS44 KMEG 301554
MTRTUP
METAR KTUP 301553Z 23004KT 10SM BKN021 28/22 A3007 RMK AO2 SLP177
T02830217





000
SAUS44 KMEG 301454
MTRTUP
METAR KTUP 301453Z 24003KT 10SM CLR 27/21 A3006 RMK AO2 RAB1358E09
SLP176 P0000 60001 T02720211 51006





    US Dept of Commerce
    National Oceanic and Atmospheric Administration
    National Weather Service
    1325 East West Highway
    Silver Spring, MD 20910
    Page Author: NWS Internet Services Team
Disclaimer
Information Quality
Credits
Glossary
Privacy Policy
Freedom of Information Act (FOIA)
About Us
Career Opportunities